sensor_id;sensor_type;location;lat;lon;timestamp;pressure;altitude;pressure_sealevel;temperature;humidity
55373;BME280;41249;47.838;16.490;2023-02-04T00:01:57;99323.38;;;3.13;75.81
55373;BME280;41249;47.838;16.490;2023-02-04T00:04:23;99344.50;;;3.13;75.54
55373;BME280;41249;47.838;16.490;2023-02-04T00:06:50;99341.69;;;3.09;75.98
55373;BME280;41249;47.838;16.490;2023-02-04T00:09:16;99322.81;;;3.08;74.74
55373;BME280;41249;47.838;16.490;2023-02-04T00:11:43;99343.16;;;3.07;75.54
55373;BME280;41249;47.838;16.490;2023-02-04T00:14:10;99331.28;;;3.03;75.14
55373;BME280;41249;47.838;16.490;2023-02-04T00:16:37;99342.59;;;3.01;74.66
55373;BME280;41249;47.838;16.490;2023-02-04T00:19:04;99342.50;;;2.98;74.02
55373;BME280;41249;47.838;16.490;2023-02-04T00:21:30;99342.50;;;2.98;75.04
55373;BME280;41249;47.838;16.490;2023-02-04T00:23:57;99345.22;;;2.98;74.76
55373;BME280;41249;47.838;16.490;2023-02-04T00:26:23;99338.63;;;2.99;73.67
55373;BME280;41249;47.838;16.490;2023-02-04T00:28:50;99353.47;;;2.98;73.65
55373;BME280;41249;47.838;16.490;2023-02-04T00:31:16;99336.22;;;2.97;73.40
55373;BME280;41249;47.838;16.490;2023-02-04T00:33:43;99337.81;;;2.98;73.67
55373;BME280;41249;47.838;16.490;2023-02-04T00:36:10;99345.72;;;3.00;72.93
55373;BME280;41249;47.838;16.490;2023-02-04T00:38:36;99351.41;;;3.07;73.71
55373;BME280;41249;47.838;16.490;2023-02-04T00:41:03;99346.38;;;3.09;74.33
55373;BME280;41249;47.838;16.490;2023-02-04T00:43:30;99343.63;;;3.09;72.93
55373;BME280;41249;47.838;16.490;2023-02-04T00:45:56;99339.03;;;3.13;73.07
55373;BME280;41249;47.838;16.490;2023-02-04T00:48:23;99339.03;;;3.13;73.08
55373;BME280;41249;47.838;16.490;2023-02-04T00:50:52;99339.84;;;3.13;73.05
55373;BME280;41249;47.838;16.490;2023-02-04T00:53:19;99335.59;;;3.16;73.50
55373;BME280;41249;47.838;16.490;2023-02-04T00:55:46;99347.00;;;3.18;72.54
55373;BME280;41249;47.838;16.490;2023-02-04T00:58:12;99342.78;;;3.20;73.17
55373;BME280;41249;47.838;16.490;2023-02-04T01:00:39;99336.28;;;3.25;73.04
55373;BME280;41249;47.838;16.490;2023-02-04T01:03:05;99343.81;;;3.28;72.96
55373;BME280;41249;47.838;16.490;2023-02-04T01:05:32;99323.13;;;3.30;73.42
55373;BME280;41249;47.838;16.490;2023-02-04T01:07:59;99321.28;;;3.34;73.50
55373;BME280;41249;47.838;16.490;2023-02-04T01:10:25;99323.13;;;3.30;71.98
55373;BME280;41249;47.838;16.490;2023-02-04T01:12:52;99316.59;;;3.23;72.51
55373;BME280;41249;47.838;16.490;2023-02-04T01:15:19;99311.81;;;3.20;72.45
55373;BME280;41249;47.838;16.490;2023-02-04T01:17:45;99327.13;;;3.21;72.23
55373;BME280;41249;47.838;16.490;2023-02-04T01:20:12;99319.69;;;3.21;72.83
55373;BME280;41249;47.838;16.490;2023-02-04T01:22:38;99321.44;;;3.14;71.27
55373;BME280;41249;47.838;16.490;2023-02-04T01:25:05;99317.56;;;3.15;72.27
55373;BME280;41249;47.838;16.490;2023-02-04T01:27:32;99328.06;;;3.13;71.66
55373;BME280;41249;47.838;16.490;2023-02-04T01:29:59;99329.78;;;3.17;72.47
55373;BME280;41249;47.838;16.490;2023-02-04T01:32:25;99336.03;;;3.18;72.54
55373;BME280;41249;47.838;16.490;2023-02-04T01:34:52;99323.72;;;3.12;71.33
55373;BME280;41249;47.838;16.490;2023-02-04T01:37:19;99323.28;;;3.10;71.21
55373;BME280;41249;47.838;16.490;2023-02-04T01:39:46;99320.19;;;3.11;71.96
55373;BME280;41249;47.838;16.490;2023-02-04T01:42:12;99329.66;;;3.14;71.91
55373;BME280;41249;47.838;16.490;2023-02-04T01:44:39;99320.31;;;3.15;72.72
55373;BME280;41249;47.838;16.490;2023-02-04T01:47:06;99308.41;;;3.11;72.17
55373;BME280;41249;47.838;16.490;2023-02-04T01:49:33;99313.44;;;3.09;72.80
55373;BME280;41249;47.838;16.490;2023-02-04T01:52:01;99298.94;;;3.08;72.71
55373;BME280;41249;47.838;16.490;2023-02-04T01:54:27;99304.53;;;3.12;73.54
55373;BME280;41249;47.838;16.490;2023-02-04T01:56:54;99300.53;;;3.09;73.36
55373;BME280;41249;47.838;16.490;2023-02-04T01:59:21;99309.81;;;3.05;72.14
55373;BME280;41249;47.838;16.490;2023-02-04T02:01:50;99292.56;;;3.04;73.33
55373;BME280;41249;47.838;16.490;2023-02-04T02:04:20;99295.88;;;3.10;72.68
55373;BME280;41249;47.838;16.490;2023-02-04T02:06:51;99301.78;;;3.12;73.42
55373;BME280;41249;47.838;16.490;2023-02-04T02:09:19;99296.63;;;3.10;72.74
55373;BME280;41249;47.838;16.490;2023-02-04T02:11:46;99303.84;;;3.15;73.96
55373;BME280;41249;47.838;16.490;2023-02-04T02:14:13;99294.91;;;3.18;73.71
55373;BME280;41249;47.838;16.490;2023-02-04T02:16:40;99287.84;;;3.17;73.88
55373;BME280;41249;47.838;16.490;2023-02-04T02:19:09;99282.34;;;3.17;72.89
55373;BME280;41249;47.838;16.490;2023-02-04T02:21:50;99293.31;;;3.17;73.20
55373;BME280;41249;47.838;16.490;2023-02-04T02:24:28;99274.81;;;3.14;73.67
55373;BME280;41249;47.838;16.490;2023-02-04T02:26:56;99284.16;;;3.13;73.10
55373;BME280;41249;47.838;16.490;2023-02-04T02:29:25;99286.47;;;3.11;72.66
55373;BME280;41249;47.838;16.490;2023-02-04T02:31:53;99277.78;;;3.09;72.91
55373;BME280;41249;47.838;16.490;2023-02-04T02:34:23;99304.41;;;3.08;72.07
55373;BME280;41249;47.838;16.490;2023-02-04T02:36:51;99322.38;;;3.06;71.87
55373;BME280;41249;47.838;16.490;2023-02-04T02:39:18;99301.91;;;3.03;72.22
55373;BME280;41249;47.838;16.490;2023-02-04T02:41:45;99311.31;;;3.02;72.10
55373;BME280;41249;47.838;16.490;2023-02-04T02:44:12;99322.16;;;2.99;71.59
55373;BME280;41249;47.838;16.490;2023-02-04T02:46:40;99308.00;;;2.97;71.20
55373;BME280;41249;47.838;16.490;2023-02-04T02:49:13;99325.25;;;2.97;71.99
55373;BME280;41249;47.838;16.490;2023-02-04T02:51:41;99329.25;;;3.00;71.11
55373;BME280;41249;47.838;16.490;2023-02-04T02:54:18;99323.22;;;2.94;71.31
55373;BME280;41249;47.838;16.490;2023-02-04T02:56:46;99336.72;;;2.87;71.73
55373;BME280;41249;47.838;16.490;2023-02-04T02:59:14;99327.91;;;2.82;71.41
55373;BME280;41249;47.838;16.490;2023-02-04T03:01:42;99325.84;;;2.78;71.44
55373;BME280;41249;47.838;16.490;2023-02-04T03:04:09;99325.16;;;2.82;72.57
55373;BME280;41249;47.838;16.490;2023-02-04T03:06:37;99333.28;;;2.78;72.79
55373;BME280;41249;47.838;16.490;2023-02-04T03:09:03;99318.00;;;2.77;73.13
55373;BME280;41249;47.838;16.490;2023-02-04T03:11:30;99319.94;;;2.76;73.42
55373;BME280;41249;47.838;16.490;2023-02-04T03:14:01;99330.78;;;2.73;73.87
55373;BME280;41249;47.838;16.490;2023-02-04T03:16:31;99327.94;;;2.69;73.61
55373;BME280;41249;47.838;16.490;2023-02-04T03:19:00;99329.75;;;2.65;73.11
55373;BME280;41249;47.838;16.490;2023-02-04T03:21:27;99306.47;;;2.59;72.51
55373;BME280;41249;47.838;16.490;2023-02-04T03:23:54;99303.50;;;2.64;74.44
55373;BME280;41249;47.838;16.490;2023-02-04T03:26:23;99306.25;;;2.64;74.37
55373;BME280;41249;47.838;16.490;2023-02-04T03:28:52;99300.56;;;2.57;73.82
55373;BME280;41249;47.838;16.490;2023-02-04T03:31:19;99297.13;;;2.48;73.35
55373;BME280;41249;47.838;16.490;2023-02-04T03:33:45;99286.16;;;2.48;73.47
55373;BME280;41249;47.838;16.490;2023-02-04T03:36:12;99288.56;;;2.50;74.09
55373;BME280;41249;47.838;16.490;2023-02-04T03:38:39;99294.06;;;2.50;74.04
55373;BME280;41249;47.838;16.490;2023-02-04T03:41:06;99274.50;;;2.51;73.88
55373;BME280;41249;47.838;16.490;2023-02-04T03:43:33;99285.69;;;2.58;74.10
55373;BME280;41249;47.838;16.490;2023-02-04T03:45:59;99275.69;;;2.50;73.18
55373;BME280;41249;47.838;16.490;2023-02-04T03:48:26;99278.16;;;2.43;73.28
55373;BME280;41249;47.838;16.490;2023-02-04T03:50:52;99260.38;;;2.49;74.32
55373;BME280;41249;47.838;16.490;2023-02-04T03:53:19;99258.53;;;2.53;74.59
55373;BME280;41249;47.838;16.490;2023-02-04T03:55:47;99265.94;;;2.53;74.65
55373;BME280;41249;47.838;16.490;2023-02-04T03:58:13;99260.81;;;2.51;74.99
55373;BME280;41249;47.838;16.490;2023-02-04T04:00:40;99274.75;;;2.46;74.46
55373;BME280;41249;47.838;16.490;2023-02-04T04:03:07;99261.72;;;2.43;74.36
55373;BME280;41249;47.838;16.490;2023-02-04T04:05:33;99257.97;;;2.48;74.44
55373;BME280;41249;47.838;16.490;2023-02-04T04:08:00;99263.56;;;2.51;75.15
55373;BME280;41249;47.838;16.490;2023-02-04T04:10:27;99246.44;;;2.54;74.97
55373;BME280;41249;47.838;16.490;2023-02-04T04:12:55;99274.50;;;2.63;75.05
55373;BME280;41249;47.838;16.490;2023-02-04T04:15:22;99260.69;;;2.60;74.48
55373;BME280;41249;47.838;16.490;2023-02-04T04:17:48;99258.72;;;2.60;74.02
55373;BME280;41249;47.838;16.490;2023-02-04T04:20:15;99262.88;;;2.54;73.58
55373;BME280;41249;47.838;16.490;2023-02-04T04:22:41;99284.78;;;2.54;74.29
55373;BME280;41249;47.838;16.490;2023-02-04T04:25:08;99308.06;;;2.48;74.18
55373;BME280;41249;47.838;16.490;2023-02-04T04:27:35;99301.69;;;2.44;74.30
55373;BME280;41249;47.838;16.490;2023-02-04T04:30:02;99277.28;;;2.39;74.45
55373;BME280;41249;47.838;16.490;2023-02-04T04:32:29;99305.34;;;2.36;75.25
55373;BME280;41249;47.838;16.490;2023-02-04T04:34:55;99310.25;;;2.31;74.98
55373;BME280;41249;47.838;16.490;2023-02-04T04:37:22;99288.91;;;2.36;74.84
55373;BME280;41249;47.838;16.490;2023-02-04T04:39:48;99279.56;;;2.37;75.48
55373;BME280;41249;47.838;16.490;2023-02-04T04:42:15;99302.28;;;2.38;75.02
55373;BME280;41249;47.838;16.490;2023-02-04T04:44:41;99330.59;;;2.30;74.74
55373;BME280;41249;47.838;16.490;2023-02-04T04:47:08;99343.00;;;2.15;74.19
55373;BME280;41249;47.838;16.490;2023-02-04T04:49:34;99357.47;;;2.03;73.55
55373;BME280;41249;47.838;16.490;2023-02-04T04:52:01;99369.78;;;1.97;73.24
55373;BME280;41249;47.838;16.490;2023-02-04T04:54:28;99426.34;;;1.93;73.59
55373;BME280;41249;47.838;16.490;2023-02-04T04:56:54;99402.44;;;1.70;73.79
55373;BME280;41249;47.838;16.490;2023-02-04T04:59:21;99423.00;;;1.34;74.02
55373;BME280;41249;47.838;16.490;2023-02-04T05:01:47;99455.00;;;1.13;74.81
55373;BME280;41249;47.838;16.490;2023-02-04T05:04:14;99424.28;;;0.87;75.46
55373;BME280;41249;47.838;16.490;2023-02-04T05:06:40;99435.28;;;0.70;75.48
55373;BME280;41249;47.838;16.490;2023-02-04T05:09:07;99437.91;;;0.58;76.30
55373;BME280;41249;47.838;16.490;2023-02-04T05:11:35;99470.09;;;0.44;76.43
55373;BME280;41249;47.838;16.490;2023-02-04T05:14:01;99464.03;;;0.38;75.94
55373;BME280;41249;47.838;16.490;2023-02-04T05:16:28;99506.44;;;0.36;76.25
55373;BME280;41249;47.838;16.490;2023-02-04T05:18:54;99526.38;;;0.28;76.65
55373;BME280;41249;47.838;16.490;2023-02-04T05:21:21;99545.00;;;0.26;76.29
55373;BME280;41249;47.838;16.490;2023-02-04T05:23:47;99542.91;;;0.14;76.48
55373;BME280;41249;47.838;16.490;2023-02-04T05:26:14;99545.81;;;0.00;76.61
55373;BME280;41249;47.838;16.490;2023-02-04T05:28:54;99565.72;;;0.01;76.43
55373;BME280;41249;47.838;16.490;2023-02-04T05:31:21;99556.56;;;-0.03;76.91
55373;BME280;41249;47.838;16.490;2023-02-04T05:33:48;99556.41;;;-0.07;77.30
55373;BME280;41249;47.838;16.490;2023-02-04T05:36:14;99594.78;;;-0.12;77.48
55373;BME280;41249;47.838;16.490;2023-02-04T05:38:41;99589.47;;;-0.17;77.29
55373;BME280;41249;47.838;16.490;2023-02-04T05:41:07;99620.44;;;-0.13;77.62
55373;BME280;41249;47.838;16.490;2023-02-04T05:43:34;99606.16;;;-0.18;77.10
55373;BME280;41249;47.838;16.490;2023-02-04T05:46:01;99605.84;;;-0.17;76.99
55373;BME280;41249;47.838;16.490;2023-02-04T05:48:28;99670.81;;;-0.19;76.75
55373;BME280;41249;47.838;16.490;2023-02-04T05:50:54;99637.13;;;-0.23;77.09
55373;BME280;41249;47.838;16.490;2023-02-04T05:53:21;99644.50;;;-0.32;77.64
55373;BME280;41249;47.838;16.490;2023-02-04T05:55:47;99627.13;;;-0.36;77.48
55373;BME280;41249;47.838;16.490;2023-02-04T05:58:14;99636.59;;;-0.42;76.64
55373;BME280;41249;47.838;16.490;2023-02-04T06:00:41;99682.63;;;-0.49;76.19
55373;BME280;41249;47.838;16.490;2023-02-04T06:03:08;99660.44;;;-0.56;76.72
55373;BME280;41249;47.838;16.490;2023-02-04T06:05:35;99667.31;;;-0.59;76.20
55373;BME280;41249;47.838;16.490;2023-02-04T06:08:01;99679.66;;;-0.61;75.57
55373;BME280;41249;47.838;16.490;2023-02-04T06:10:28;99692.19;;;-0.60;76.24
55373;BME280;41249;47.838;16.490;2023-02-04T06:12:55;99692.38;;;-0.57;76.01
55373;BME280;41249;47.838;16.490;2023-02-04T06:15:21;99695.88;;;-0.56;75.31
55373;BME280;41249;47.838;16.490;2023-02-04T06:17:48;99698.19;;;-0.50;75.42
55373;BME280;41249;47.838;16.490;2023-02-04T06:20:15;99717.94;;;-0.44;75.31
55373;BME280;41249;47.838;16.490;2023-02-04T06:22:41;99763.03;;;-0.38;75.33
55373;BME280;41249;47.838;16.490;2023-02-04T06:25:08;99729.81;;;-0.40;75.26
55373;BME280;41249;47.838;16.490;2023-02-04T06:27:34;99764.03;;;-0.34;75.03
55373;BME280;41249;47.838;16.490;2023-02-04T06:30:01;99753.59;;;-0.32;75.11
55373;BME280;41249;47.838;16.490;2023-02-04T06:32:28;99765.81;;;-0.29;73.69
55373;BME280;41249;47.838;16.490;2023-02-04T06:34:54;99791.94;;;-0.28;74.05
55373;BME280;41249;47.838;16.490;2023-02-04T06:37:21;99792.44;;;-0.26;73.08
55373;BME280;41249;47.838;16.490;2023-02-04T06:39:49;99807.50;;;-0.29;72.59
55373;BME280;41249;47.838;16.490;2023-02-04T06:42:17;99832.59;;;-0.27;73.06
55373;BME280;41249;47.838;16.490;2023-02-04T06:44:43;99868.41;;;-0.20;72.83
55373;BME280;41249;47.838;16.490;2023-02-04T06:47:10;99838.88;;;-0.18;73.01
55373;BME280;41249;47.838;16.490;2023-02-04T06:49:36;99856.53;;;-0.15;72.82
55373;BME280;41249;47.838;16.490;2023-02-04T06:52:03;99846.72;;;-0.16;72.50
55373;BME280;41249;47.838;16.490;2023-02-04T06:54:30;99862.97;;;-0.11;72.63
55373;BME280;41249;47.838;16.490;2023-02-04T06:56:57;99870.38;;;-0.12;71.46
55373;BME280;41249;47.838;16.490;2023-02-04T06:59:36;99887.59;;;-0.03;72.65
55373;BME280;41249;47.838;16.490;2023-02-04T07:02:04;99890.81;;;-0.01;72.43
55373;BME280;41249;47.838;16.490;2023-02-04T07:04:31;99887.28;;;-0.01;72.30
55373;BME280;41249;47.838;16.490;2023-02-04T07:06:58;99883.44;;;-0.00;71.61
55373;BME280;41249;47.838;16.490;2023-02-04T07:09:24;99915.09;;;0.09;72.48
55373;BME280;41249;47.838;16.490;2023-02-04T07:11:51;99920.09;;;0.07;71.74
55373;BME280;41249;47.838;16.490;2023-02-04T07:14:17;99943.34;;;0.05;70.94
55373;BME280;41249;47.838;16.490;2023-02-04T07:16:44;99968.84;;;0.00;70.86
55373;BME280;41249;47.838;16.490;2023-02-04T07:19:11;99974.72;;;-0.06;71.57
55373;BME280;41249;47.838;16.490;2023-02-04T07:21:37;99987.47;;;-0.02;71.29
55373;BME280;41249;47.838;16.490;2023-02-04T07:24:04;99989.56;;;0.01;71.39
55373;BME280;41249;47.838;16.490;2023-02-04T07:26:31;99997.31;;;0.08;71.31
55373;BME280;41249;47.838;16.490;2023-02-04T07:28:57;100003.19;;;0.01;71.30
55373;BME280;41249;47.838;16.490;2023-02-04T07:31:24;100014.31;;;0.05;71.54
55373;BME280;41249;47.838;16.490;2023-02-04T07:33:50;100050.00;;;0.08;71.26
55373;BME280;41249;47.838;16.490;2023-02-04T07:36:17;100044.16;;;0.01;70.45
55373;BME280;41249;47.838;16.490;2023-02-04T07:38:44;100049.72;;;-0.04;70.72
55373;BME280;41249;47.838;16.490;2023-02-04T07:41:10;100070.94;;;-0.01;70.62
55373;BME280;41249;47.838;16.490;2023-02-04T07:43:37;100075.78;;;0.02;70.43
55373;BME280;41249;47.838;16.490;2023-02-04T07:46:03;100082.56;;;0.05;70.82
55373;BME280;41249;47.838;16.490;2023-02-04T07:48:30;100098.13;;;0.04;70.81
55373;BME280;41249;47.838;16.490;2023-02-04T07:50:56;100115.44;;;-0.00;70.84
55373;BME280;41249;47.838;16.490;2023-02-04T07:53:23;100107.56;;;-0.02;70.74
55373;BME280;41249;47.838;16.490;2023-02-04T07:55:50;100123.47;;;-0.17;70.51
55373;BME280;41249;47.838;16.490;2023-02-04T07:58:16;100134.06;;;-0.16;70.41
55373;BME280;41249;47.838;16.490;2023-02-04T08:00:43;100150.75;;;-0.17;69.84
55373;BME280;41249;47.838;16.490;2023-02-04T08:03:09;100155.72;;;-0.19;70.00
55373;BME280;41249;47.838;16.490;2023-02-04T08:05:36;100155.91;;;-0.29;69.75
55373;BME280;41249;47.838;16.490;2023-02-04T08:08:02;100157.72;;;-0.25;69.89
55373;BME280;41249;47.838;16.490;2023-02-04T08:10:29;100171.28;;;-0.20;69.79
55373;BME280;41249;47.838;16.490;2023-02-04T08:12:56;100179.34;;;-0.28;68.75
55373;BME280;41249;47.838;16.490;2023-02-04T08:15:22;100186.94;;;-0.25;68.71
55373;BME280;41249;47.838;16.490;2023-02-04T08:17:49;100195.31;;;-0.22;68.61
55373;BME280;41249;47.838;16.490;2023-02-04T08:20:15;100203.59;;;-0.13;68.03
55373;BME280;41249;47.838;16.490;2023-02-04T08:22:43;100191.66;;;-0.04;69.13
55373;BME280;41249;47.838;16.490;2023-02-04T08:25:11;100213.47;;;-0.04;68.33
55373;BME280;41249;47.838;16.490;2023-02-04T08:27:38;100246.66;;;-0.10;68.28
55373;BME280;41249;47.838;16.490;2023-02-04T08:30:05;100247.47;;;-0.10;67.83
55373;BME280;41249;47.838;16.490;2023-02-04T08:32:32;100243.91;;;-0.24;68.04
55373;BME280;41249;47.838;16.490;2023-02-04T08:34:58;100252.72;;;-0.27;67.97
55373;BME280;41249;47.838;16.490;2023-02-04T08:37:25;100259.19;;;-0.23;68.01
55373;BME280;41249;47.838;16.490;2023-02-04T08:39:52;100279.00;;;-0.17;68.13
55373;BME280;41249;47.838;16.490;2023-02-04T08:42:18;100288.50;;;-0.15;67.86
55373;BME280;41249;47.838;16.490;2023-02-04T08:44:45;100293.97;;;-0.15;68.17
55373;BME280;41249;47.838;16.490;2023-02-04T08:47:12;100304.28;;;-0.12;67.89
55373;BME280;41249;47.838;16.490;2023-02-04T08:49:38;100302.88;;;-0.09;67.86
55373;BME280;41249;47.838;16.490;2023-02-04T08:52:05;100312.16;;;0.03;69.70
55373;BME280;41249;47.838;16.490;2023-02-04T08:54:34;100332.59;;;0.06;69.76
55373;BME280;41249;47.838;16.490;2023-02-04T08:57:01;100337.44;;;0.09;68.97
55373;BME280;41249;47.838;16.490;2023-02-04T08:59:28;100342.91;;;0.22;69.04
55373;BME280;41249;47.838;16.490;2023-02-04T09:01:55;100387.41;;;0.37;68.93
55373;BME280;41249;47.838;16.490;2023-02-04T09:04:22;100376.28;;;0.47;67.73
55373;BME280;41249;47.838;16.490;2023-02-04T09:06:50;100349.66;;;0.52;66.61
55373;BME280;41249;47.838;16.490;2023-02-04T09:09:16;100350.94;;;0.68;67.41
55373;BME280;41249;47.838;16.490;2023-02-04T09:11:43;100374.81;;;0.76;67.06
55373;BME280;41249;47.838;16.490;2023-02-04T09:14:10;100342.34;;;0.75;65.01
55373;BME280;41249;47.838;16.490;2023-02-04T09:16:36;100368.41;;;0.81;65.17
55373;BME280;41249;47.838;16.490;2023-02-04T09:19:03;100378.16;;;0.87;65.50
55373;BME280;41249;47.838;16.490;2023-02-04T09:21:30;100378.25;;;0.82;64.56
55373;BME280;41249;47.838;16.490;2023-02-04T09:23:57;100400.84;;;0.74;63.98
55373;BME280;41249;47.838;16.490;2023-02-04T09:26:24;100392.25;;;0.67;63.01
55373;BME280;41249;47.838;16.490;2023-02-04T09:28:50;100405.13;;;0.53;63.50
55373;BME280;41249;47.838;16.490;2023-02-04T09:31:17;100401.88;;;0.51;64.14
55373;BME280;41249;47.838;16.490;2023-02-04T09:33:44;100403.38;;;0.57;65.24
55373;BME280;41249;47.838;16.490;2023-02-04T09:36:10;100421.78;;;0.51;64.49
55373;BME280;41249;47.838;16.490;2023-02-04T09:38:37;100411.38;;;0.40;64.17
55373;BME280;41249;47.838;16.490;2023-02-04T09:41:06;100439.19;;;0.42;65.12
55373;BME280;41249;47.838;16.490;2023-02-04T09:43:37;100435.88;;;0.45;64.59
55373;BME280;41249;47.838;16.490;2023-02-04T09:46:08;100432.50;;;0.34;64.04
55373;BME280;41249;47.838;16.490;2023-02-04T09:48:38;100451.22;;;0.27;60.98
55373;BME280;41249;47.838;16.490;2023-02-04T09:51:06;100459.81;;;0.20;63.94
55373;BME280;41249;47.838;16.490;2023-02-04T09:53:34;100458.97;;;0.06;64.84
55373;BME280;41249;47.838;16.490;2023-02-04T09:56:01;100471.72;;;0.11;65.45
55373;BME280;41249;47.838;16.490;2023-02-04T09:58:32;100482.44;;;0.07;64.55
55373;BME280;41249;47.838;16.490;2023-02-04T10:01:17;100477.38;;;0.01;64.03
55373;BME280;41249;47.838;16.490;2023-02-04T10:03:44;100506.06;;;-0.02;61.45
55373;BME280;41249;47.838;16.490;2023-02-04T10:06:20;100501.19;;;-0.05;64.28
55373;BME280;41249;47.838;16.490;2023-02-04T10:08:49;100529.66;;;-0.11;64.20
55373;BME280;41249;47.838;16.490;2023-02-04T10:11:17;100517.78;;;-0.01;65.59
55373;BME280;41249;47.838;16.490;2023-02-04T10:13:47;100502.44;;;0.03;65.71
55373;BME280;41249;47.838;16.490;2023-02-04T10:16:23;100517.50;;;0.00;64.95
55373;BME280;41249;47.838;16.490;2023-02-04T10:19:03;100514.47;;;0.02;65.98
55373;BME280;41249;47.838;16.490;2023-02-04T10:21:31;100523.28;;;0.12;65.70
55373;BME280;41249;47.838;16.490;2023-02-04T10:24:00;100507.34;;;0.19;65.15
55373;BME280;41249;47.838;16.490;2023-02-04T10:26:29;100519.88;;;0.20;64.72
55373;BME280;41249;47.838;16.490;2023-02-04T10:29:11;100506.81;;;0.17;64.27
55373;BME280;41249;47.838;16.490;2023-02-04T10:31:47;100540.16;;;0.33;64.38
55373;BME280;41249;47.838;16.490;2023-02-04T10:34:36;100523.97;;;0.37;65.06
55373;BME280;41249;47.838;16.490;2023-02-04T10:37:19;100542.56;;;0.35;64.21
55373;BME280;41249;47.838;16.490;2023-02-04T10:39:46;100557.59;;;0.18;64.38
55373;BME280;41249;47.838;16.490;2023-02-04T10:42:25;100527.53;;;0.18;63.16
55373;BME280;41249;47.838;16.490;2023-02-04T10:44:52;100536.38;;;0.29;63.10
55373;BME280;41249;47.838;16.490;2023-02-04T10:47:21;100547.03;;;0.44;63.88
55373;BME280;41249;47.838;16.490;2023-02-04T10:50:02;100552.75;;;0.61;63.51
55373;BME280;41249;47.838;16.490;2023-02-04T10:52:41;100558.84;;;0.72;63.30
55373;BME280;41249;47.838;16.490;2023-02-04T10:55:15;100561.78;;;0.75;62.23
55373;BME280;41249;47.838;16.490;2023-02-04T10:57:45;100560.47;;;0.73;62.06
55373;BME280;41249;47.838;16.490;2023-02-04T11:00:17;100578.47;;;0.60;61.32
55373;BME280;41249;47.838;16.490;2023-02-04T11:02:48;100545.63;;;0.47;61.17
55373;BME280;41249;47.838;16.490;2023-02-04T11:05:27;100549.28;;;0.42;61.46
55373;BME280;41249;47.838;16.490;2023-02-04T11:07:55;100554.78;;;0.56;61.65
55373;BME280;41249;47.838;16.490;2023-02-04T11:10:30;100536.16;;;0.58;61.12
55373;BME280;41249;47.838;16.490;2023-02-04T11:13:03;100558.38;;;0.51;60.22
55373;BME280;41249;47.838;16.490;2023-02-04T11:15:48;100569.53;;;0.55;59.69
55373;BME280;41249;47.838;16.490;2023-02-04T11:20:48;100556.56;;;0.47;60.15
55373;BME280;41249;47.838;16.490;2023-02-04T11:34:09;100558.28;;;0.89;59.65
55373;BME280;41249;47.838;16.490;2023-02-04T11:39:33;100553.50;;;0.80;61.10
55373;BME280;41249;47.838;16.490;2023-02-04T11:42:01;100566.31;;;0.66;61.51
55373;BME280;41249;47.838;16.490;2023-02-04T11:44:28;100567.72;;;0.50;61.90
55373;BME280;41249;47.838;16.490;2023-02-04T11:46:56;100556.06;;;0.45;62.94
55373;BME280;41249;47.838;16.490;2023-02-04T11:49:25;100547.88;;;0.45;62.84
55373;BME280;41249;47.838;16.490;2023-02-04T11:52:03;100562.75;;;0.52;63.90
55373;BME280;41249;47.838;16.490;2023-02-04T11:54:34;100554.06;;;0.64;64.23
55373;BME280;41249;47.838;16.490;2023-02-04T11:57:02;100562.47;;;0.67;63.81
55373;BME280;41249;47.838;16.490;2023-02-04T11:59:28;100522.59;;;0.66;63.80
55373;BME280;41249;47.838;16.490;2023-02-04T12:02:15;100547.91;;;0.72;63.37
55373;BME280;41249;47.838;16.490;2023-02-04T12:05:08;100542.84;;;0.79;63.42
55373;BME280;41249;47.838;16.490;2023-02-04T12:07:35;100549.34;;;0.83;63.86
55373;BME280;41249;47.838;16.490;2023-02-04T12:10:24;100558.06;;;0.99;62.96
55373;BME280;41249;47.838;16.490;2023-02-04T12:12:53;100543.28;;;1.13;63.50
55373;BME280;41249;47.838;16.490;2023-02-04T12:15:29;100566.91;;;1.23;62.28
55373;BME280;41249;47.838;16.490;2023-02-04T12:18:06;100580.66;;;1.31;62.72
55373;BME280;41249;47.838;16.490;2023-02-04T12:20:36;100575.50;;;1.30;62.40
55373;BME280;41249;47.838;16.490;2023-02-04T12:23:04;100593.94;;;1.24;61.45
55373;BME280;41249;47.838;16.490;2023-02-04T12:25:31;100591.63;;;1.18;61.27
55373;BME280;41249;47.838;16.490;2023-02-04T12:27:58;100607.81;;;1.14;60.47
55373;BME280;41249;47.838;16.490;2023-02-04T12:30:25;100606.19;;;1.13;60.29
55373;BME280;41249;47.838;16.490;2023-02-04T12:32:52;100602.03;;;1.16;59.88
55373;BME280;41249;47.838;16.490;2023-02-04T12:35:19;100584.63;;;1.12;59.65
55373;BME280;41249;47.838;16.490;2023-02-04T12:37:45;100589.16;;;1.16;59.86
55373;BME280;41249;47.838;16.490;2023-02-04T12:40:16;100589.69;;;1.32;60.41
55373;BME280;41249;47.838;16.490;2023-02-04T12:42:43;100601.03;;;1.39;60.15
55373;BME280;41249;47.838;16.490;2023-02-04T12:45:11;100585.94;;;1.41;59.47
55373;BME280;41249;47.838;16.490;2023-02-04T12:47:38;100582.97;;;1.52;59.63
55373;BME280;41249;47.838;16.490;2023-02-04T12:50:07;100601.03;;;1.53;58.72
55373;BME280;41249;47.838;16.490;2023-02-04T12:52:34;100585.09;;;1.55;57.88
55373;BME280;41249;47.838;16.490;2023-02-04T12:55:02;100603.66;;;1.58;58.31
55373;BME280;41249;47.838;16.490;2023-02-04T12:57:31;100597.38;;;1.57;57.19
55373;BME280;41249;47.838;16.490;2023-02-04T12:59:58;100597.97;;;1.54;56.98
55373;BME280;41249;47.838;16.490;2023-02-04T13:02:27;100625.34;;;1.54;57.56
55373;BME280;41249;47.838;16.490;2023-02-04T13:04:54;100596.47;;;1.48;56.88
55373;BME280;41249;47.838;16.490;2023-02-04T13:07:21;100609.84;;;1.49;55.76
55373;BME280;41249;47.838;16.490;2023-02-04T13:09:48;100597.38;;;1.43;56.48
55373;BME280;41249;47.838;16.490;2023-02-04T13:12:15;100611.69;;;1.40;56.54
55373;BME280;41249;47.838;16.490;2023-02-04T13:14:42;100586.41;;;1.43;56.43